sensor_id;sensor_type;location;lat;lon;timestamp;temperature;humidity
45619;DHT22;31343;47.520;19.144;2022-09-09T00:01:53;19.00;99.90
45619;DHT22;31343;47.520;19.144;2022-09-09T00:04:32;19.00;99.90
45619;DHT22;31343;47.520;19.144;2022-09-09T00:09:27;19.00;99.90
45619;DHT22;31343;47.520;19.144;2022-09-09T00:12:04;18.90;99.90
45619;DHT22;31343;47.520;19.144;2022-09-09T00:14:42;18.90;99.90
45619;DHT22;31343;47.520;19.144;2022-09-09T00:17:14;18.90;99.90
45619;DHT22;31343;47.520;19.144;2022-09-09T00:19:49;18.80;99.90
45619;DHT22;31343;47.520;19.144;2022-09-09T00:22:19;18.70;99.90
45619;DHT22;31343;47.520;19.144;2022-09-09T00:24:46;18.70;99.90
45619;DHT22;31343;47.520;19.144;2022-09-09T00:27:16;18.70;99.90
45619;DHT22;31343;47.520;19.144;2022-09-09T00:29:45;18.70;99.90
45619;DHT22;31343;47.520;19.144;2022-09-09T00:32:14;18.70;99.90
45619;DHT22;31343;47.520;19.144;2022-09-09T00:34:51;18.60;99.90
45619;DHT22;31343;47.520;19.144;2022-09-09T00:37:18;18.60;99.90
45619;DHT22;31343;47.520;19.144;2022-09-09T00:39:47;18.50;99.90
45619;DHT22;31343;47.520;19.144;2022-09-09T00:42:17;18.50;99.90
45619;DHT22;31343;47.520;19.144;2022-09-09T00:53:05;18.40;99.90
45619;DHT22;31343;47.520;19.144;2022-09-09T00:58:06;18.40;99.90
45619;DHT22;31343;47.520;19.144;2022-09-09T01:00:35;18.40;99.90
45619;DHT22;31343;47.520;19.144;2022-09-09T01:06:02;18.40;99.90
45619;DHT22;31343;47.520;19.144;2022-09-09T01:11:05;18.30;99.90
45619;DHT22;31343;47.520;19.144;2022-09-09T01:13:35;18.40;99.90
45619;DHT22;31343;47.520;19.144;2022-09-09T01:16:02;18.30;99.90
45619;DHT22;31343;47.520;19.144;2022-09-09T01:18:35;18.30;99.90
45619;DHT22;31343;47.520;19.144;2022-09-09T01:21:08;18.40;99.90
45619;DHT22;31343;47.520;19.144;2022-09-09T01:28:44;18.30;99.90
45619;DHT22;31343;47.520;19.144;2022-09-09T01:31:11;18.30;99.90
45619;DHT22;31343;47.520;19.144;2022-09-09T01:33:38;18.30;99.90
45619;DHT22;31343;47.520;19.144;2022-09-09T01:36:05;18.30;99.90
45619;DHT22;31343;47.520;19.144;2022-09-09T01:38:32;18.20;99.90
45619;DHT22;31343;47.520;19.144;2022-09-09T01:40:59;18.30;99.90
45619;DHT22;31343;47.520;19.144;2022-09-09T01:43:25;18.20;99.90
45619;DHT22;31343;47.520;19.144;2022-09-09T01:45:53;18.30;99.90
45619;DHT22;31343;47.520;19.144;2022-09-09T01:48:20;18.20;99.90
45619;DHT22;31343;47.520;19.144;2022-09-09T01:50:46;18.20;99.90
45619;DHT22;31343;47.520;19.144;2022-09-09T01:53:12;18.20;99.90
45619;DHT22;31343;47.520;19.144;2022-09-09T01:55:39;18.20;99.90
45619;DHT22;31343;47.520;19.144;2022-09-09T02:00:30;18.20;99.90
45619;DHT22;31343;47.520;19.144;2022-09-09T02:05:38;18.20;99.90
45619;DHT22;31343;47.520;19.144;2022-09-09T02:08:08;18.10;99.90
45619;DHT22;31343;47.520;19.144;2022-09-09T02:10:39;18.10;99.90
45619;DHT22;31343;47.520;19.144;2022-09-09T02:13:09;18.10;99.90
45619;DHT22;31343;47.520;19.144;2022-09-09T02:18:42;18.00;99.90
45619;DHT22;31343;47.520;19.144;2022-09-09T02:21:05;18.10;99.90
45619;DHT22;31343;47.520;19.144;2022-09-09T02:23:32;18.10;99.90
45619;DHT22;31343;47.520;19.144;2022-09-09T02:25:59;18.00;99.90
45619;DHT22;31343;47.520;19.144;2022-09-09T02:28:25;18.10;99.90
45619;DHT22;31343;47.520;19.144;2022-09-09T02:30:52;18.10;99.90
45619;DHT22;31343;47.520;19.144;2022-09-09T02:33:24;18.10;99.90
45619;DHT22;31343;47.520;19.144;2022-09-09T02:35:50;18.00;99.90
45619;DHT22;31343;47.520;19.144;2022-09-09T02:38:16;18.00;99.90
45619;DHT22;31343;47.520;19.144;2022-09-09T02:40:42;18.00;99.90
45619;DHT22;31343;47.520;19.144;2022-09-09T02:43:08;18.00;99.90
45619;DHT22;31343;47.520;19.144;2022-09-09T02:45:36;18.10;99.90
45619;DHT22;31343;47.520;19.144;2022-09-09T02:50:33;18.10;99.90
45619;DHT22;31343;47.520;19.144;2022-09-09T02:53:18;18.10;99.90
45619;DHT22;31343;47.520;19.144;2022-09-09T02:55:58;18.00;99.90
45619;DHT22;31343;47.520;19.144;2022-09-09T02:58:25;18.00;99.90
45619;DHT22;31343;47.520;19.144;2022-09-09T03:00:51;18.00;99.90
45619;DHT22;31343;47.520;19.144;2022-09-09T03:03:18;18.00;99.90
45619;DHT22;31343;47.520;19.144;2022-09-09T03:05:45;18.00;99.90
45619;DHT22;31343;47.520;19.144;2022-09-09T03:08:10;18.00;99.90
45619;DHT22;31343;47.520;19.144;2022-09-09T03:10:36;17.90;99.90
45619;DHT22;31343;47.520;19.144;2022-09-09T03:13:02;17.90;99.90
45619;DHT22;31343;47.520;19.144;2022-09-09T03:15:29;17.90;99.90
45619;DHT22;31343;47.520;19.144;2022-09-09T03:17:56;17.90;99.90
45619;DHT22;31343;47.520;19.144;2022-09-09T03:20:25;17.90;99.90
45619;DHT22;31343;47.520;19.144;2022-09-09T03:22:52;17.90;99.90
45619;DHT22;31343;47.520;19.144;2022-09-09T03:25:17;17.80;99.90
45619;DHT22;31343;47.520;19.144;2022-09-09T03:27:43;17.90;99.90
45619;DHT22;31343;47.520;19.144;2022-09-09T03:30:08;17.90;99.90
45619;DHT22;31343;47.520;19.144;2022-09-09T03:32:34;17.90;99.90
45619;DHT22;31343;47.520;19.144;2022-09-09T03:35:00;17.90;99.90
45619;DHT22;31343;47.520;19.144;2022-09-09T03:37:25;17.90;99.90
45619;DHT22;31343;47.520;19.144;2022-09-09T03:39:51;17.90;99.90
45619;DHT22;31343;47.520;19.144;2022-09-09T03:42:18;17.90;99.90
45619;DHT22;31343;47.520;19.144;2022-09-09T03:44:47;17.80;99.90
45619;DHT22;31343;47.520;19.144;2022-09-09T03:47:18;17.80;99.90
45619;DHT22;31343;47.520;19.144;2022-09-09T03:49:44;17.70;99.90
45619;DHT22;31343;47.520;19.144;2022-09-09T03:52:10;17.80;99.90
45619;DHT22;31343;47.520;19.144;2022-09-09T03:54:35;17.70;99.90
45619;DHT22;31343;47.520;19.144;2022-09-09T03:57:01;17.70;99.90
45619;DHT22;31343;47.520;19.144;2022-09-09T03:59:26;17.70;99.90
45619;DHT22;31343;47.520;19.144;2022-09-09T04:01:52;17.70;99.90
45619;DHT22;31343;47.520;19.144;2022-09-09T04:04:18;17.70;99.90
45619;DHT22;31343;47.520;19.144;2022-09-09T04:06:45;17.70;99.90
45619;DHT22;31343;47.520;19.144;2022-09-09T04:09:11;17.70;99.90
45619;DHT22;31343;47.520;19.144;2022-09-09T04:11:36;17.70;99.90
45619;DHT22;31343;47.520;19.144;2022-09-09T04:14:02;17.70;99.90
45619;DHT22;31343;47.520;19.144;2022-09-09T04:16:29;17.70;99.90
45619;DHT22;31343;47.520;19.144;2022-09-09T04:18:54;17.70;99.90
45619;DHT22;31343;47.520;19.144;2022-09-09T04:21:21;17.70;99.90
45619;DHT22;31343;47.520;19.144;2022-09-09T04:23:47;17.70;99.90
45619;DHT22;31343;47.520;19.144;2022-09-09T04:26:12;17.70;99.90
45619;DHT22;31343;47.520;19.144;2022-09-09T04:28:38;17.70;99.90
45619;DHT22;31343;47.520;19.144;2022-09-09T04:31:07;17.60;99.90
45619;DHT22;31343;47.520;19.144;2022-09-09T04:33:34;17.60;99.90
45619;DHT22;31343;47.520;19.144;2022-09-09T04:35:59;17.60;99.90
45619;DHT22;31343;47.520;19.144;2022-09-09T04:38:25;17.50;99.90
45619;DHT22;31343;47.520;19.144;2022-09-09T04:40:51;17.60;99.90
45619;DHT22;31343;47.520;19.144;2022-09-09T04:43:18;17.60;99.90
45619;DHT22;31343;47.520;19.144;2022-09-09T04:45:48;17.50;99.90
45619;DHT22;31343;47.520;19.144;2022-09-09T04:48:13;17.60;99.90
45619;DHT22;31343;47.520;19.144;2022-09-09T04:50:39;17.60;99.90
45619;DHT22;31343;47.520;19.144;2022-09-09T04:53:06;17.50;99.90
45619;DHT22;31343;47.520;19.144;2022-09-09T04:55:32;17.60;99.90
45619;DHT22;31343;47.520;19.144;2022-09-09T04:57:57;17.70;99.90
45619;DHT22;31343;47.520;19.144;2022-09-09T05:00:23;17.70;99.90
45619;DHT22;31343;47.520;19.144;2022-09-09T05:02:50;17.60;99.90
45619;DHT22;31343;47.520;19.144;2022-09-09T05:05:17;17.60;99.90
45619;DHT22;31343;47.520;19.144;2022-09-09T05:07:43;17.70;99.90
45619;DHT22;31343;47.520;19.144;2022-09-09T05:10:09;17.70;99.90
45619;DHT22;31343;47.520;19.144;2022-09-09T05:12:35;17.80;99.90
45619;DHT22;31343;47.520;19.144;2022-09-09T05:15:01;17.80;99.90
45619;DHT22;31343;47.520;19.144;2022-09-09T05:17:27;17.90;99.90
45619;DHT22;31343;47.520;19.144;2022-09-09T05:19:54;18.00;99.90
45619;DHT22;31343;47.520;19.144;2022-09-09T05:22:19;17.90;99.90
45619;DHT22;31343;47.520;19.144;2022-09-09T05:24:46;18.00;99.90
45619;DHT22;31343;47.520;19.144;2022-09-09T05:27:11;18.10;99.90
45619;DHT22;31343;47.520;19.144;2022-09-09T05:29:37;18.10;99.90
45619;DHT22;31343;47.520;19.144;2022-09-09T05:32:03;18.20;99.90
45619;DHT22;31343;47.520;19.144;2022-09-09T05:34:29;18.30;99.90
45619;DHT22;31343;47.520;19.144;2022-09-09T05:36:54;18.40;99.90
45619;DHT22;31343;47.520;19.144;2022-09-09T05:39:20;18.50;99.90
45619;DHT22;31343;47.520;19.144;2022-09-09T05:41:46;18.80;99.90
45619;DHT22;31343;47.520;19.144;2022-09-09T05:44:12;19.10;99.90
45619;DHT22;31343;47.520;19.144;2022-09-09T05:46:38;19.50;99.90
45619;DHT22;31343;47.520;19.144;2022-09-09T05:49:04;19.80;99.90
45619;DHT22;31343;47.520;19.144;2022-09-09T05:51:30;20.00;99.90
45619;DHT22;31343;47.520;19.144;2022-09-09T05:53:56;20.30;99.90
45619;DHT22;31343;47.520;19.144;2022-09-09T05:56:25;20.70;99.90
45619;DHT22;31343;47.520;19.144;2022-09-09T05:58:52;21.20;99.90
45619;DHT22;31343;47.520;19.144;2022-09-09T06:01:20;21.40;99.90
45619;DHT22;31343;47.520;19.144;2022-09-09T06:03:46;21.40;99.90
45619;DHT22;31343;47.520;19.144;2022-09-09T06:06:13;21.30;99.90
45619;DHT22;31343;47.520;19.144;2022-09-09T06:08:40;21.20;99.90
45619;DHT22;31343;47.520;19.144;2022-09-09T06:11:07;21.40;99.90
45619;DHT22;31343;47.520;19.144;2022-09-09T06:13:33;21.30;99.90
45619;DHT22;31343;47.520;19.144;2022-09-09T06:15:59;21.40;99.90
45619;DHT22;31343;47.520;19.144;2022-09-09T06:18:25;21.80;99.90
45619;DHT22;31343;47.520;19.144;2022-09-09T06:20:57;22.50;99.90
45619;DHT22;31343;47.520;19.144;2022-09-09T06:23:23;23.20;99.90
45619;DHT22;31343;47.520;19.144;2022-09-09T06:25:49;23.80;99.90
45619;DHT22;31343;47.520;19.144;2022-09-09T06:28:16;24.10;99.90
45619;DHT22;31343;47.520;19.144;2022-09-09T06:30:42;23.60;99.90
45619;DHT22;31343;47.520;19.144;2022-09-09T06:33:08;23.20;99.90
45619;DHT22;31343;47.520;19.144;2022-09-09T06:35:34;23.30;99.90
45619;DHT22;31343;47.520;19.144;2022-09-09T06:38:00;24.00;99.90
45619;DHT22;31343;47.520;19.144;2022-09-09T06:40:25;25.20;99.90
45619;DHT22;31343;47.520;19.144;2022-09-09T06:42:51;26.10;99.90
45619;DHT22;31343;47.520;19.144;2022-09-09T06:45:17;26.60;99.80
45619;DHT22;31343;47.520;19.144;2022-09-09T06:47:43;26.90;98.90
45619;DHT22;31343;47.520;19.144;2022-09-09T06:50:09;26.80;98.30
45619;DHT22;31343;47.520;19.144;2022-09-09T06:52:36;26.40;98.40
45619;DHT22;31343;47.520;19.144;2022-09-09T06:55:02;25.80;98.60
45619;DHT22;31343;47.520;19.144;2022-09-09T06:57:28;25.80;99.90
45619;DHT22;31343;47.520;19.144;2022-09-09T06:59:53;26.00;99.90
45619;DHT22;31343;47.520;19.144;2022-09-09T07:02:19;25.90;99.00
45619;DHT22;31343;47.520;19.144;2022-09-09T07:04:45;25.80;99.90
45619;DHT22;31343;47.520;19.144;2022-09-09T07:07:10;26.10;99.40
45619;DHT22;31343;47.520;19.144;2022-09-09T07:09:38;25.70;99.90
45619;DHT22;31343;47.520;19.144;2022-09-09T07:12:05;25.60;99.90
45619;DHT22;31343;47.520;19.144;2022-09-09T07:14:31;25.10;99.90
45619;DHT22;31343;47.520;19.144;2022-09-09T07:16:57;25.10;99.90
45619;DHT22;31343;47.520;19.144;2022-09-09T07:19:23;24.50;99.90
45619;DHT22;31343;47.520;19.144;2022-09-09T07:21:48;24.20;99.90
45619;DHT22;31343;47.520;19.144;2022-09-09T07:24:14;23.50;99.90
45619;DHT22;31343;47.520;19.144;2022-09-09T07:26:40;23.10;99.90
45619;DHT22;31343;47.520;19.144;2022-09-09T07:29:07;23.60;99.90
45619;DHT22;31343;47.520;19.144;2022-09-09T07:31:34;24.70;99.90
45619;DHT22;31343;47.520;19.144;2022-09-09T07:34:00;25.70;99.30
45619;DHT22;31343;47.520;19.144;2022-09-09T07:36:27;26.70;97.60
45619;DHT22;31343;47.520;19.144;2022-09-09T07:38:54;27.30;96.50
45619;DHT22;31343;47.520;19.144;2022-09-09T07:41:30;27.80;95.90
45619;DHT22;31343;47.520;19.144;2022-09-09T07:43:58;28.70;95.00
45619;DHT22;31343;47.520;19.144;2022-09-09T07:46:24;30.10;93.60
45619;DHT22;31343;47.520;19.144;2022-09-09T07:48:51;31.10;92.00
45619;DHT22;31343;47.520;19.144;2022-09-09T07:51:18;32.00;90.90
45619;DHT22;31343;47.520;19.144;2022-09-09T07:53:45;31.80;89.70
45619;DHT22;31343;47.520;19.144;2022-09-09T07:56:12;31.50;89.10
45619;DHT22;31343;47.520;19.144;2022-09-09T07:58:39;31.20;90.00
45619;DHT22;31343;47.520;19.144;2022-09-09T08:01:12;31.50;90.20
45619;DHT22;31343;47.520;19.144;2022-09-09T08:03:38;32.20;88.30
45619;DHT22;31343;47.520;19.144;2022-09-09T08:06:04;32.40;84.90
45619;DHT22;31343;47.520;19.144;2022-09-09T08:08:31;32.20;85.10
45619;DHT22;31343;47.520;19.144;2022-09-09T08:11:04;32.30;85.90
45619;DHT22;31343;47.520;19.144;2022-09-09T08:13:30;32.50;86.10
45619;DHT22;31343;47.520;19.144;2022-09-09T08:16:03;31.60;85.60
45619;DHT22;31343;47.520;19.144;2022-09-09T08:18:29;31.30;86.40
45619;DHT22;31343;47.520;19.144;2022-09-09T08:20:54;30.60;87.90
45619;DHT22;31343;47.520;19.144;2022-09-09T08:23:20;29.80;88.40
45619;DHT22;31343;47.520;19.144;2022-09-09T08:25:46;29.10;90.40
45619;DHT22;31343;47.520;19.144;2022-09-09T08:28:14;28.90;91.60
45619;DHT22;31343;47.520;19.144;2022-09-09T08:30:39;28.60;91.70
45619;DHT22;31343;47.520;19.144;2022-09-09T08:33:05;27.90;92.10
45619;DHT22;31343;47.520;19.144;2022-09-09T08:35:30;27.60;92.40
45619;DHT22;31343;47.520;19.144;2022-09-09T08:37:57;27.60;93.30
45619;DHT22;31343;47.520;19.144;2022-09-09T08:40:25;27.40;93.60
45619;DHT22;31343;47.520;19.144;2022-09-09T08:42:53;27.00;93.80
45619;DHT22;31343;47.520;19.144;2022-09-09T08:45:24;26.70;94.00
45619;DHT22;31343;47.520;19.144;2022-09-09T08:50:26;25.70;93.70
45619;DHT22;31343;47.520;19.144;2022-09-09T08:58:00;25.80;95.40
45619;DHT22;31343;47.520;19.144;2022-09-09T09:00:29;25.80;94.50
45619;DHT22;31343;47.520;19.144;2022-09-09T09:03:09;25.60;94.60
45619;DHT22;31343;47.520;19.144;2022-09-09T09:05:47;25.50;95.70
45619;DHT22;31343;47.520;19.144;2022-09-09T09:10:46;25.40;94.90
45619;DHT22;31343;47.520;19.144;2022-09-09T09:13:17;25.40;95.40
45619;DHT22;31343;47.520;19.144;2022-09-09T09:15:44;25.40;95.20
45619;DHT22;31343;47.520;19.144;2022-09-09T09:18:12;25.30;95.10
45619;DHT22;31343;47.520;19.144;2022-09-09T09:20:42;25.30;94.90
45619;DHT22;31343;47.520;19.144;2022-09-09T09:23:12;25.10;94.90
45619;DHT22;31343;47.520;19.144;2022-09-09T09:25:40;24.90;95.70
45619;DHT22;31343;47.520;19.144;2022-09-09T09:30:35;25.20;96.70
45619;DHT22;31343;47.520;19.144;2022-09-09T09:33:02;25.30;96.50
45619;DHT22;31343;47.520;19.144;2022-09-09T09:35:28;25.30;96.30
45619;DHT22;31343;47.520;19.144;2022-09-09T09:37:54;25.20;95.60
45619;DHT22;31343;47.520;19.144;2022-09-09T09:40:20;25.10;96.30
45619;DHT22;31343;47.520;19.144;2022-09-09T09:45:20;25.30;95.30
45619;DHT22;31343;47.520;19.144;2022-09-09T09:48:00;25.30;95.40
45619;DHT22;31343;47.520;19.144;2022-09-09T09:50:27;25.30;95.00
45619;DHT22;31343;47.520;19.144;2022-09-09T09:52:53;25.10;95.10
45619;DHT22;31343;47.520;19.144;2022-09-09T09:55:20;25.30;96.00
45619;DHT22;31343;47.520;19.144;2022-09-09T09:57:46;25.50;95.90
45619;DHT22;31343;47.520;19.144;2022-09-09T10:00:18;25.40;95.30
45619;DHT22;31343;47.520;19.144;2022-09-09T10:02:46;25.30;95.20
45619;DHT22;31343;47.520;19.144;2022-09-09T10:07:37;25.00;94.90
45619;DHT22;31343;47.520;19.144;2022-09-09T10:10:04;25.00;95.60
45619;DHT22;31343;47.520;19.144;2022-09-09T10:12:33;25.30;96.00
45619;DHT22;31343;47.520;19.144;2022-09-09T10:22:51;25.50;94.90
45619;DHT22;31343;47.520;19.144;2022-09-09T10:26:01;25.50;95.00
45619;DHT22;31343;47.520;19.144;2022-09-09T10:30:57;25.80;94.60
45619;DHT22;31343;47.520;19.144;2022-09-09T10:33:28;26.10;94.50
45619;DHT22;31343;47.520;19.144;2022-09-09T10:38:42;26.50;93.30
45619;DHT22;31343;47.520;19.144;2022-09-09T10:46:29;26.50;93.60
45619;DHT22;31343;47.520;19.144;2022-09-09T10:57:31;26.90;92.60
45619;DHT22;31343;47.520;19.144;2022-09-09T10:59:58;27.00;92.50
45619;DHT22;31343;47.520;19.144;2022-09-09T11:02:29;27.20;91.10
45619;DHT22;31343;47.520;19.144;2022-09-09T11:07:31;26.30;90.70
45619;DHT22;31343;47.520;19.144;2022-09-09T11:10:00;28.30;90.80
45619;DHT22;31343;47.520;19.144;2022-09-09T11:12:26;28.90;89.30
45619;DHT22;31343;47.520;19.144;2022-09-09T11:14:59;29.30;89.40
45619;DHT22;31343;47.520;19.144;2022-09-09T11:17:30;30.00;85.70
45619;DHT22;31343;47.520;19.144;2022-09-09T11:19:58;30.60;84.60
45619;DHT22;31343;47.520;19.144;2022-09-09T11:22:34;31.60;80.90
45619;DHT22;31343;47.520;19.144;2022-09-09T11:30:02;34.10;77.00
45619;DHT22;31343;47.520;19.144;2022-09-09T11:40:15;34.20;72.70
45619;DHT22;31343;47.520;19.144;2022-09-09T11:42:42;35.10;74.40
45619;DHT22;31343;47.520;19.144;2022-09-09T11:45:08;35.30;71.70
45619;DHT22;31343;47.520;19.144;2022-09-09T11:47:34;35.30;70.60
45619;DHT22;31343;47.520;19.144;2022-09-09T11:52:41;36.10;70.50
45619;DHT22;31343;47.520;19.144;2022-09-09T11:55:29;36.30;69.90
45619;DHT22;31343;47.520;19.144;2022-09-09T12:00:40;35.40;69.20
45619;DHT22;31343;47.520;19.144;2022-09-09T12:05:51;37.00;67.40
45619;DHT22;31343;47.520;19.144;2022-09-09T12:08:17;36.30;66.00
45619;DHT22;31343;47.520;19.144;2022-09-09T12:10:53;36.00;65.30
45619;DHT22;31343;47.520;19.144;2022-09-09T12:13:22;35.70;65.40
45619;DHT22;31343;47.520;19.144;2022-09-09T12:15:49;36.00;66.30
45619;DHT22;31343;47.520;19.144;2022-09-09T12:18:25;36.70;64.70
45619;DHT22;31343;47.520;19.144;2022-09-09T12:20:53;36.40;66.10
45619;DHT22;31343;47.520;19.144;2022-09-09T12:23:23;35.80;64.60
45619;DHT22;31343;47.520;19.144;2022-09-09T12:26:04;35.10;66.00
45619;DHT22;31343;47.520;19.144;2022-09-09T12:33:23;34.90;67.20
45619;DHT22;31343;47.520;19.144;2022-09-09T12:35:51;34.10;69.00
45619;DHT22;31343;47.520;19.144;2022-09-09T12:38:22;33.40;69.30
45619;DHT22;31343;47.520;19.144;2022-09-09T12:40:56;33.00;69.00
45619;DHT22;31343;47.520;19.144;2022-09-09T12:43:24;32.50;68.40
45619;DHT22;31343;47.520;19.144;2022-09-09T12:45:50;32.10;69.90
45619;DHT22;31343;47.520;19.144;2022-09-09T12:48:21;32.20;71.70
45619;DHT22;31343;47.520;19.144;2022-09-09T12:50:49;33.10;69.80
45619;DHT22;31343;47.520;19.144;2022-09-09T12:53:22;34.00;69.20
45619;DHT22;31343;47.520;19.144;2022-09-09T12:55:50;34.90;68.50
45619;DHT22;31343;47.520;19.144;2022-09-09T12:58:17;35.50;66.90
45619;DHT22;31343;47.520;19.144;2022-09-09T13:00:50;35.80;65.60
45619;DHT22;31343;47.520;19.144;2022-09-09T13:03:18;35.80;64.60
45619;DHT22;31343;47.520;19.144;2022-09-09T13:05:46;36.10;64.90
45619;DHT22;31343;47.520;19.144;2022-09-09T13:08:15;36.90;64.50
45619;DHT22;31343;47.520;19.144;2022-09-09T13:10:44;36.60;63.10
45619;DHT22;31343;47.520;19.144;2022-09-09T13:13:19;36.10;64.30
45619;DHT22;31343;47.520;19.144;2022-09-09T13:15:55;35.10;64.10
45619;DHT22;31343;47.520;19.144;2022-09-09T13:18:22;34.60;65.20
45619;DHT22;31343;47.520;19.144;2022-09-09T13:20:48;34.40;66.20
45619;DHT22;31343;47.520;19.144;2022-09-09T13:23:15;33.50;66.70
45619;DHT22;31343;47.520;19.144;2022-09-09T13:25:41;33.20;67.50
45619;DHT22;31343;47.520;19.144;2022-09-09T13:28:19;32.80;66.80
45619;DHT22;31343;47.520;19.144;2022-09-09T13:30:54;32.60;68.50
45619;DHT22;31343;47.520;19.144;2022-09-09T13:33:22;32.10;69.00
45619;DHT22;31343;47.520;19.144;2022-09-09T13:35:57;31.10;67.90
45619;DHT22;31343;47.520;19.144;2022-09-09T13:38:23;30.60;70.30
45619;DHT22;31343;47.520;19.144;2022-09-09T13:43:27;30.40;72.20
45619;DHT22;31343;47.520;19.144;2022-09-09T13:45:57;30.30;72.50
45619;DHT22;31343;47.520;19.144;2022-09-09T13:48:23;29.90;71.10
45619;DHT22;31343;47.520;19.144;2022-09-09T13:50:56;29.50;71.80
45619;DHT22;31343;47.520;19.144;2022-09-09T13:53:22;29.50;73.10
45619;DHT22;31343;47.520;19.144;2022-09-09T13:55:47;29.40;74.60
45619;DHT22;31343;47.520;19.144;2022-09-09T13:58:16;29.20;74.70
45619;DHT22;31343;47.520;19.144;2022-09-09T14:00:44;29.10;74.40
45619;DHT22;31343;47.520;19.144;2022-09-09T14:03:10;29.20;73.20
45619;DHT22;31343;47.520;19.144;2022-09-09T14:05:35;29.10;73.50
45619;DHT22;31343;47.520;19.144;2022-09-09T14:08:03;29.20;74.50
45619;DHT22;31343;47.520;19.144;2022-09-09T14:10:28;29.10;73.70
45619;DHT22;31343;47.520;19.144;2022-09-09T14:12:54;29.20;74.00
45619;DHT22;31343;47.520;19.144;2022-09-09T14:15:19;29.20;75.30
45619;DHT22;31343;47.520;19.144;2022-09-09T14:17:45;29.20;73.80
45619;DHT22;31343;47.520;19.144;2022-09-09T14:20:10;28.90;74.60
45619;DHT22;31343;47.520;19.144;2022-09-09T14:22:37;28.70;76.00
45619;DHT22;31343;47.520;19.144;2022-09-09T14:25:04;28.60;76.60
45619;DHT22;31343;47.520;19.144;2022-09-09T14:27:31;28.40;75.00
45619;DHT22;31343;47.520;19.144;2022-09-09T14:29:58;28.30;74.50
45619;DHT22;31343;47.520;19.144;2022-09-09T14:32:23;28.30;75.00
45619;DHT22;31343;47.520;19.144;2022-09-09T14:34:49;28.20;75.30
45619;DHT22;31343;47.520;19.144;2022-09-09T14:37:15;28.20;76.10
45619;DHT22;31343;47.520;19.144;2022-09-09T14:39:41;28.20;76.10
45619;DHT22;31343;47.520;19.144;2022-09-09T14:42:09;28.10;75.40
45619;DHT22;31343;47.520;19.144;2022-09-09T14:44:36;28.00;75.10
45619;DHT22;31343;47.520;19.144;2022-09-09T14:47:04;27.90;75.70
45619;DHT22;31343;47.520;19.144;2022-09-09T14:49:29;27.70;75.20
45619;DHT22;31343;47.520;19.144;2022-09-09T14:51:55;27.60;76.70
45619;DHT22;31343;47.520;19.144;2022-09-09T14:54:21;27.60;76.80
45619;DHT22;31343;47.520;19.144;2022-09-09T14:56:48;27.50;76.10
45619;DHT22;31343;47.520;19.144;2022-09-09T14:59:14;27.40;75.70
45619;DHT22;31343;47.520;19.144;2022-09-09T15:01:39;27.10;75.90
45619;DHT22;31343;47.520;19.144;2022-09-09T15:04:05;27.10;76.60
45619;DHT22;31343;47.520;19.144;2022-09-09T15:06:31;27.20;77.40
45619;DHT22;31343;47.520;19.144;2022-09-09T15:08:58;27.10;75.50
45619;DHT22;31343;47.520;19.144;2022-09-09T15:11:25;27.10;76.20
45619;DHT22;31343;47.520;19.144;2022-09-09T15:13:51;26.90;76.80
45619;DHT22;31343;47.520;19.144;2022-09-09T15:16:21;27.00;78.40
45619;DHT22;31343;47.520;19.144;2022-09-09T15:18:49;27.00;76.40
45619;DHT22;31343;47.520;19.144;2022-09-09T15:21:16;26.90;77.90
45619;DHT22;31343;47.520;19.144;2022-09-09T15:23:44;27.00;76.80
45619;DHT22;31343;47.520;19.144;2022-09-09T15:26:10;27.10;76.70
45619;DHT22;31343;47.520;19.144;2022-09-09T15:28:36;26.90;76.70
45619;DHT22;31343;47.520;19.144;2022-09-09T15:31:06;26.90;76.50
45619;DHT22;31343;47.520;19.144;2022-09-09T15:33:32;27.00;77.40
45619;DHT22;31343;47.520;19.144;2022-09-09T15:35:58;27.00;76.90
45619;DHT22;31343;47.520;19.144;2022-09-09T15:38:23;26.90;76.30
45619;DHT22;31343;47.520;19.144;2022-09-09T15:40:53;27.00;78.00
45619;DHT22;31343;47.520;19.144;2022-09-09T15:43:19;26.90;76.80
45619;DHT22;31343;47.520;19.144;2022-09-09T15:45:45;26.80;76.00
45619;DHT22;31343;47.520;19.144;2022-09-09T15:48:11;26.80;76.90
45619;DHT22;31343;47.520;19.144;2022-09-09T15:50:37;26.90;77.50
45619;DHT22;31343;47.520;19.144;2022-09-09T15:53:02;26.90;77.80
45619;DHT22;31343;47.520;19.144;2022-09-09T15:55:28;26.90;78.50
45619;DHT22;31343;47.520;19.144;2022-09-09T15:57:53;26.80;78.30
45619;DHT22;31343;47.520;19.144;2022-09-09T16:00:20;26.70;78.80
45619;DHT22;31343;47.520;19.144;2022-09-09T16:02:46;26.60;79.30
45619;DHT22;31343;47.520;19.144;2022-09-09T16:05:12;26.50;79.20
45619;DHT22;31343;47.520;19.144;2022-09-09T16:07:38;26.40;79.30
45619;DHT22;31343;47.520;19.144;2022-09-09T16:10:04;26.30;80.00
45619;DHT22;31343;47.520;19.144;2022-09-09T16:12:31;26.10;80.00
45619;DHT22;31343;47.520;19.144;2022-09-09T16:14:56;26.10;80.70
45619;DHT22;31343;47.520;19.144;2022-09-09T16:17:22;26.10;80.50
45619;DHT22;31343;47.520;19.144;2022-09-09T16:19:47;26.10;81.20
45619;DHT22;31343;47.520;19.144;2022-09-09T16:22:13;26.10;80.90
45619;DHT22;31343;47.520;19.144;2022-09-09T16:24:40;26.00;82.90
45619;DHT22;31343;47.520;19.144;2022-09-09T16:27:06;26.00;82.90
45619;DHT22;31343;47.520;19.144;2022-09-09T16:29:32;26.00;83.30
45619;DHT22;31343;47.520;19.144;2022-09-09T16:31:58;26.00;84.30
45619;DHT22;31343;47.520;19.144;2022-09-09T16:34:25;25.90;85.30
45619;DHT22;31343;47.520;19.144;2022-09-09T16:36:51;25.90;85.50
45619;DHT22;31343;47.520;19.144;2022-09-09T16:39:18;25.90;86.10
45619;DHT22;31343;47.520;19.144;2022-09-09T16:41:44;25.90;86.10
45619;DHT22;31343;47.520;19.144;2022-09-09T16:44:10;25.80;86.30
45619;DHT22;31343;47.520;19.144;2022-09-09T16:46:37;25.70;85.70
45619;DHT22;31343;47.520;19.144;2022-09-09T16:49:07;25.60;85.60
45619;DHT22;31343;47.520;19.144;2022-09-09T16:51:34;25.50;85.50
45619;DHT22;31343;47.520;19.144;2022-09-09T16:54:01;25.40;86.90
45619;DHT22;31343;47.520;19.144;2022-09-09T16:56:27;25.30;87.40
45619;DHT22;31343;47.520;19.144;2022-09-09T16:58:54;25.30;86.90
45619;DHT22;31343;47.520;19.144;2022-09-09T17:01:28;25.20;87.60
45619;DHT22;31343;47.520;19.144;2022-09-09T17:03:54;25.10;88.10
45619;DHT22;31343;47.520;19.144;2022-09-09T17:06:21;25.10;90.30
45619;DHT22;31343;47.520;19.144;2022-09-09T17:08:46;25.10;90.20